Gridleyville, New York
Current Conditions -  °F | °C
As of 3:56 PM on Thursday 18 Dec 2014 (Local Time) from KITH Reporting Station
Overcast Overcast  
Wind Chill: 21°   Ceiling: 1300
Heat Index: 31°   Visibility: 10mi
Dew Point: 28°   Wind: 14mph
Humidity: 88%   Direction: 320°NW
Pressure: 30.01"   Gusts: NA
Location:  42.294°N, 76.4012°W
Report Text: KITH 182056Z 32012KT 10SM OVC013 M01/M02 A3001 RMK AO2 53007 60000 T10051022 SNE40 P0000 SLP175
Loading
Personal Weather Stations






























Interactive Weather Map New forecast layout! Learn more

10-Day Weather Forecast

Advertisements
Track Severe Weather on mobile